Weather at Kaufana Airport

Public forecast

Using degrees Celsius for public forecast. Weather courtesy of forecast.io.

Closest aviation weather report (METAR) to Kaufana Airport

Closest report is Fua'amotu International Airport, 13.5 nm (25.1 km) NW. Retrieved 2022/06/24 22:00 UTC (1 hour ago):

NFTF 242200Z 10009G20KT 9999 FEW014 BKN140 24/19 Q1021

Closest aviation forecast (TAF) to Kaufana Airport

Forecast is more than 6 hours old.

Closest forecast is Fua'amotu International Airport, 13.5 nm (25.1 km) NW. Retrieved 2022/06/24 12:00 UTC (11 hours ago):

TAF NFTF 241101Z 2412/2512 10006KT 9999 SCT016 BKN030 PROB30 TEMPO 2412/2503 12015G25KT